Time;durP1;ratioP1;P1;durP2;ratioP2;P2;SDS_P1;SDS_P2;PMS_P1;PMS_P2;Temp;Humidity;BMP_temperature;BMP_pressure;BME280_temperature;BME280_humidity;BME280_pressure;Samples;Min_cycle;Max_cycle;Signal;HPM_P1;HPM_P2
2023/03/26 00:01:06;;;;;;;;;;;;;;;8.21;66.54;97367.25;5080935;28;19931;-57
2023/03/26 00:03:34;;;;;;;;;;;;;;;8.31;65.63;97366.19;5091231;28;20444;-56
2023/03/26 00:06:03;;;;;;;;;;;;;;;8.20;66.44;97368.34;5091939;28;19931;-56
2023/03/26 00:08:30;;;;;;;;;;;;;;;8.36;65.70;97374.22;5090757;28;20239;-56
2023/03/26 00:10:58;;;;;;;;;;;;;;;8.28;65.60;97377.66;5091541;28;19955;-56
2023/03/26 00:13:27;;;;;;;;;;;;;;;8.30;65.78;97387.03;5088296;28;19924;-61
2023/03/26 00:15:56;;;;;;;;;;;;;;;8.24;65.79;97382.88;5083799;28;19924;-56
2023/03/26 00:18:29;;;;;;;;;;;;;;;8.28;65.74;97378.44;5091895;28;20266;-59
2023/03/26 00:20:57;;;;;;;;;;;;;;;8.24;66.16;97382.88;5084331;28;19950;-57
2023/03/26 00:23:25;;;;;;;;;;;;;;;8.17;66.13;97376.31;5091470;28;19924;-56
2023/03/26 00:25:54;;;;;;;;;;;;;;;8.25;66.28;97376.34;5084245;28;19931;-57
2023/03/26 00:28:25;;;;;;;;;;;;;;;8.22;66.48;97384.28;5092250;28;19924;-56
2023/03/26 00:30:57;;;;;;;;;;;;;;;8.24;66.34;97380.16;5105097;28;19924;-57
2023/03/26 00:33:26;;;;;;;;;;;;;;;8.12;66.89;97380.72;5083883;28;19924;-56
2023/03/26 00:35:55;;;;;;;;;;;;;;;8.15;66.63;97379.31;5091635;28;19947;-56
2023/03/26 00:38:23;;;;;;;;;;;;;;;8.14;66.87;97383.13;5088385;28;19924;-56
2023/03/26 00:40:51;;;;;;;;;;;;;;;8.16;66.65;97382.81;5095270;28;20416;-56
2023/03/26 00:43:20;;;;;;;;;;;;;;;8.17;66.95;97379.81;5088079;28;19925;-56
2023/03/26 00:45:48;;;;;;;;;;;;;;;8.17;66.70;97374.38;5099937;28;19925;-56
2023/03/26 00:48:16;;;;;;;;;;;;;;;8.01;67.43;97373.97;5087858;28;19924;-59
2023/03/26 00:50:46;;;;;;;;;;;;;;;8.19;66.71;97372.16;5085542;28;19966;-56
2023/03/26 00:53:14;;;;;;;;;;;;;;;8.13;67.20;97374.19;5089349;28;19931;-56
2023/03/26 00:55:43;;;;;;;;;;;;;;;8.11;67.10;97367.50;5079170;28;19932;-57
2023/03/26 00:58:11;;;;;;;;;;;;;;;8.05;67.59;97369.53;5082892;28;20346;-56
2023/03/26 01:00:42;;;;;;;;;;;;;;;8.07;67.37;97363.81;5092153;28;19963;-56
2023/03/26 01:03:12;;;;;;;;;;;;;;;8.05;67.53;97368.75;5086416;28;19935;-56
2023/03/26 01:05:55;;;;;;;;;;;;;;;8.06;67.36;97364.94;5082939;28;19947;-57
2023/03/26 01:08:25;;;;;;;;;;;;;;;8.05;67.54;97363.34;5087692;28;19924;-56
2023/03/26 01:11:01;;;;;;;;;;;;;;;8.05;67.59;97371.44;5092946;28;19928;-56
2023/03/26 01:13:31;;;;;;;;;;;;;;;8.03;67.69;97373.66;5083453;28;19931;-56
2023/03/26 01:16:00;;;;;;;;;;;;;;;8.06;67.58;97362.22;5076969;28;20258;-60
2023/03/26 01:18:32;;;;;;;;;;;;;;;8.05;67.66;97357.94;5104184;28;19930;-57
2023/03/26 01:21:08;;;;;;;;;;;;;;;7.97;67.82;97358.66;5086700;28;19928;-56
2023/03/26 01:23:43;;;;;;;;;;;;;;;7.94;67.95;97353.88;5076845;28;19924;-55
2023/03/26 01:26:15;;;;;;;;;;;;;;;8.10;67.56;97358.59;5084545;28;19928;-57
2023/03/26 01:28:43;;;;;;;;;;;;;;;8.08;67.66;97351.88;5087809;28;19928;-55
2023/03/26 01:31:12;;;;;;;;;;;;;;;8.06;67.62;97351.41;5083713;28;19928;-56
2023/03/26 01:33:42;;;;;;;;;;;;;;;8.02;67.88;97356.63;5088807;28;19928;-56
2023/03/26 01:36:11;;;;;;;;;;;;;;;7.95;68.07;97348.16;5079349;28;20016;-55
2023/03/26 01:38:45;;;;;;;;;;;;;;;7.98;67.86;97346.72;5103086;28;19928;-56
2023/03/26 01:41:15;;;;;;;;;;;;;;;7.95;67.86;97347.34;5093105;28;19924;-56
2023/03/26 01:43:45;;;;;;;;;;;;;;;8.02;67.51;97345.00;5089789;28;20328;-59
2023/03/26 01:46:14;;;;;;;;;;;;;;;7.90;67.83;97350.19;5086639;28;19925;-56
2023/03/26 01:48:42;;;;;;;;;;;;;;;7.94;68.01;97341.16;5089276;28;20347;-56
2023/03/26 01:51:11;;;;;;;;;;;;;;;7.78;68.50;97338.00;5089866;28;19928;-56
2023/03/26 01:53:40;;;;;;;;;;;;;;;7.88;68.25;97339.66;5091284;28;19928;-56
2023/03/26 01:56:12;;;;;;;;;;;;;;;7.87;68.18;97346.97;5107206;28;19924;-57
2023/03/26 01:58:45;;;;;;;;;;;;;;;7.85;68.50;97338.38;5089241;28;19964;-57
2023/03/26 02:01:16;;;;;;;;;;;;;;;7.85;68.54;97334.88;5087583;28;19924;-56
2023/03/26 02:03:45;;;;;;;;;;;;;;;7.75;68.53;97327.78;5091227;28;20400;-55
2023/03/26 02:06:16;;;;;;;;;;;;;;;7.81;68.52;97328.47;5086591;28;19924;-56
2023/03/26 02:08:48;;;;;;;;;;;;;;;7.80;68.11;97318.75;5103939;28;20352;-55
2023/03/26 02:11:15;;;;;;;;;;;;;;;7.74;68.34;97322.69;5093606;28;19925;-56
2023/03/26 02:13:45;;;;;;;;;;;;;;;7.60;68.86;97320.03;5079647;28;20392;-57
2023/03/26 02:16:15;;;;;;;;;;;;;;;7.66;68.82;97307.19;5102207;28;19924;-57
2023/03/26 02:18:42;;;;;;;;;;;;;;;7.65;68.82;97308.31;5108767;28;19935;-56
2023/03/26 02:21:11;;;;;;;;;;;;;;;7.69;68.69;97303.91;5091206;28;19939;-56
2023/03/26 02:23:40;;;;;;;;;;;;;;;7.73;68.41;97297.56;5090935;28;19928;-57
2023/03/26 02:26:09;;;;;;;;;;;;;;;7.65;68.10;97292.09;5089411;28;19931;-57
2023/03/26 02:28:50;;;;;;;;;;;;;;;7.60;68.59;97293.00;5092230;28;20335;-56
2023/03/26 02:31:20;;;;;;;;;;;;;;;7.57;69.11;97293.63;5090849;28;19947;-56
2023/03/26 02:33:48;;;;;;;;;;;;;;;7.57;68.81;97299.03;5084066;28;19939;-55
2023/03/26 02:36:18;;;;;;;;;;;;;;;7.65;68.60;97292.88;5106119;28;19932;-56
2023/03/26 02:38:47;;;;;;;;;;;;;;;7.54;68.71;97289.63;5092048;28;20373;-56
2023/03/26 02:41:15;;;;;;;;;;;;;;;7.69;68.92;97287.69;5092536;28;19932;-56
2023/03/26 02:43:59;;;;;;;;;;;;;;;7.71;68.31;97282.75;5091009;28;20278;-56
2023/03/26 02:46:49;;;;;;;;;;;;;;;7.59;68.83;97286.81;5089229;28;20377;-57
2023/03/26 02:49:36;;;;;;;;;;;;;;;7.65;68.14;97287.47;5091485;28;20305;-56
2023/03/26 02:52:05;;;;;;;;;;;;;;;7.67;68.46;97292.56;5091867;28;19928;-56
2023/03/26 02:54:34;;;;;;;;;;;;;;;7.61;68.47;97292.69;5089729;28;19935;-56
2023/03/26 02:57:15;;;;;;;;;;;;;;;7.59;68.59;97286.00;5094868;28;20335;-56
2023/03/26 02:59:45;;;;;;;;;;;;;;;7.51;69.05;97278.63;5090485;28;19974;-55
2023/03/26 03:02:31;;;;;;;;;;;;;;;7.60;68.41;97268.69;5087944;28;19930;-56
2023/03/26 03:05:17;;;;;;;;;;;;;;;7.32;68.96;97266.09;5089618;28;19932;-56
2023/03/26 03:07:51;;;;;;;;;;;;;;;7.33;69.14;97267.69;5090721;28;19947;-56
2023/03/26 03:10:20;;;;;;;;;;;;;;;7.37;69.21;97267.09;5092780;28;19924;-57
2023/03/26 03:13:11;;;;;;;;;;;;;;;7.39;68.83;97262.16;5086752;28;20301;-56
2023/03/26 03:15:40;;;;;;;;;;;;;;;7.30;69.17;97262.09;5083743;28;19928;-56
2023/03/26 03:18:08;;;;;;;;;;;;;;;7.38;68.35;97268.66;5091420;28;20084;-56
2023/03/26 03:20:36;;;;;;;;;;;;;;;7.40;67.83;97261.06;5090989;28;19932;-56
2023/03/26 03:23:04;;;;;;;;;;;;;;;7.35;68.10;97251.19;5088387;28;19928;-56
2023/03/26 03:25:33;;;;;;;;;;;;;;;7.21;68.37;97251.22;5092016;28;19928;-56
2023/03/26 03:28:01;;;;;;;;;;;;;;;7.25;68.57;97243.31;5091259;28;19985;-57
2023/03/26 03:30:29;;;;;;;;;;;;;;;7.26;67.99;97234.09;5091137;28;19981;-56
2023/03/26 03:33:23;;;;;;;;;;;;;;;7.24;67.99;97234.38;5080987;28;19924;-56
2023/03/26 03:35:51;;;;;;;;;;;;;;;7.22;68.22;97231.19;5089371;28;19982;-56
2023/03/26 03:38:19;;;;;;;;;;;;;;;7.16;68.69;97229.72;5089863;28;19924;-56
2023/03/26 03:40:49;;;;;;;;;;;;;;;7.14;68.88;97226.53;5088681;28;19924;-56
2023/03/26 03:43:18;;;;;;;;;;;;;;;7.10;68.73;97225.53;5092515;28;20300;-56
2023/03/26 03:46:10;;;;;;;;;;;;;;;7.05;68.80;97214.84;5090383;28;19947;-56
2023/03/26 03:48:48;;;;;;;;;;;;;;;7.04;69.11;97227.56;5087343;28;19925;-56
2023/03/26 03:51:21;;;;;;;;;;;;;;;7.07;69.01;97215.34;5101954;28;20015;-56
2023/03/26 03:53:54;;;;;;;;;;;;;;;7.06;69.30;97216.44;5087488;28;19925;-56
2023/03/26 03:56:34;;;;;;;;;;;;;;;7.23;68.66;97216.59;5088200;28;20692;-56
2023/03/26 03:59:29;;;;;;;;;;;;;;;7.29;68.13;97217.25;5086186;28;20444;-56
2023/03/26 04:01:57;;;;;;;;;;;;;;;7.29;68.03;97212.66;5097292;28;19978;-57
2023/03/26 04:04:38;;;;;;;;;;;;;;;7.17;68.59;97215.09;5084741;28;20255;-56
2023/03/26 04:07:10;;;;;;;;;;;;;;;7.20;68.69;97219.13;5086620;28;19924;-57
2023/03/26 04:10:14;;;;;;;;;;;;;;;7.16;69.09;97227.03;5048404;28;19967;-57
2023/03/26 04:13:00;;;;;;;;;;;;;;;7.03;69.70;97225.16;5085143;28;20022;-56
2023/03/26 04:15:47;;;;;;;;;;;;;;;7.08;69.66;97219.63;5080181;28;19935;-56
2023/03/26 04:18:14;;;;;;;;;;;;;;;7.08;69.73;97217.75;5104497;28;20035;-57
2023/03/26 04:20:46;;;;;;;;;;;;;;;7.12;69.69;97212.53;5089944;28;19928;-56
2023/03/26 04:23:21;;;;;;;;;;;;;;;7.10;70.15;97220.16;5085078;28;19930;-56
2023/03/26 04:25:55;;;;;;;;;;;;;;;7.08;70.55;97216.94;5089602;28;20630;-56
2023/03/26 04:28:41;;;;;;;;;;;;;;;7.09;70.61;97216.66;5105150;27;19932;-56
2023/03/26 04:31:23;;;;;;;;;;;;;;;7.12;70.37;97215.22;5090698;28;19928;-56
2023/03/26 04:33:53;;;;;;;;;;;;;;;7.07;70.93;97204.53;5087782;28;19928;-56
2023/03/26 04:36:25;;;;;;;;;;;;;;;7.17;70.57;97193.50;5085842;28;20452;-56
2023/03/26 04:38:54;;;;;;;;;;;;;;;7.15;70.89;97189.53;5105207;28;20426;-56
2023/03/26 04:41:31;;;;;;;;;;;;;;;7.17;70.78;97196.19;5106450;28;19924;-56
2023/03/26 04:44:05;;;;;;;;;;;;;;;7.12;70.91;97182.81;5087117;28;20046;-61
2023/03/26 04:46:42;;;;;;;;;;;;;;;7.20;70.54;97179.38;5089468;28;19947;-56
2023/03/26 04:49:17;;;;;;;;;;;;;;;7.11;70.93;97186.63;5089513;28;19959;-57
2023/03/26 04:51:46;;;;;;;;;;;;;;;7.22;70.83;97179.06;5088662;28;20026;-55
2023/03/26 04:54:34;;;;;;;;;;;;;;;7.14;71.35;97174.41;5094965;28;19936;-55
2023/03/26 04:57:07;;;;;;;;;;;;;;;7.19;71.18;97171.56;5083771;28;19931;-56
2023/03/26 05:00:15;;;;;;;;;;;;;;;7.13;71.11;97170.91;5089448;28;20009;-56
2023/03/26 05:02:48;;;;;;;;;;;;;;;7.10;71.46;97166.13;5106244;28;20701;-56
2023/03/26 05:05:17;;;;;;;;;;;;;;;7.18;71.33;97162.66;5095902;28;19935;-56
2023/03/26 05:07:47;;;;;;;;;;;;;;;7.16;71.59;97164.09;5083262;28;20042;-56
2023/03/26 05:10:19;;;;;;;;;;;;;;;7.25;70.65;97157.66;5088255;28;20304;-57
2023/03/26 05:12:50;;;;;;;;;;;;;;;7.25;71.41;97152.25;5074930;28;19932;-61
2023/03/26 05:15:25;;;;;;;;;;;;;;;7.30;70.89;97144.03;5093631;28;19943;-56
2023/03/26 05:18:07;;;;;;;;;;;;;;;7.23;70.85;97138.22;5085008;28;19924;-56
2023/03/26 05:20:51;;;;;;;;;;;;;;;7.36;70.55;97131.19;5089953;28;19924;-56
2023/03/26 05:23:20;;;;;;;;;;;;;;;7.33;70.27;97132.56;5092351;28;20384;-56
2023/03/26 05:25:54;;;;;;;;;;;;;;;7.40;70.01;97128.63;5093123;28;19985;-55
2023/03/26 05:28:25;;;;;;;;;;;;;;;7.35;70.35;97133.09;5093611;28;19978;-57
2023/03/26 05:31:05;;;;;;;;;;;;;;;7.39;69.75;97127.03;5088858;28;19935;-62
2023/03/26 05:33:37;;;;;;;;;;;;;;;7.44;70.31;97125.00;5090240;28;19928;-55
2023/03/26 05:36:11;;;;;;;;;;;;;;;7.45;70.29;97125.81;5085497;28;20391;-58
2023/03/26 05:38:46;;;;;;;;;;;;;;;7.50;69.92;97114.88;5089433;28;19934;-56
2023/03/26 05:41:17;;;;;;;;;;;;;;;7.43;70.01;97111.81;5090205;28;19932;-56
2023/03/26 05:43:47;;;;;;;;;;;;;;;7.58;69.80;97101.41;5104641;28;20006;-56
2023/03/26 05:46:22;;;;;;;;;;;;;;;7.53;69.69;97103.44;5093181;28;19928;-56
2023/03/26 05:48:51;;;;;;;;;;;;;;;7.59;69.42;97097.59;5088515;28;19924;-56
2023/03/26 05:51:19;;;;;;;;;;;;;;;7.61;69.25;97098.06;5086489;28;20389;-57
2023/03/26 05:53:58;;;;;;;;;;;;;;;7.60;68.98;97090.25;5093569;28;20308;-56
2023/03/26 05:56:45;;;;;;;;;;;;;;;7.71;69.22;97088.09;5091653;28;19930;-56
2023/03/26 05:59:46;;;;;;;;;;;;;;;7.77;68.74;97073.31;5070883;28;19924;-56
2023/03/26 06:02:16;;;;;;;;;;;;;;;7.83;68.72;97080.19;5088200;28;19924;-56
2023/03/26 06:05:03;;;;;;;;;;;;;;;7.83;68.72;97077.50;5088200;28;19946;-58
2023/03/26 06:07:49;;;;;;;;;;;;;;;7.92;68.28;97062.06;5091083;28;20068;-56
2023/03/26 06:10:20;;;;;;;;;;;;;;;8.05;68.30;97065.78;5089790;28;20288;-56
2023/03/26 06:12:49;;;;;;;;;;;;;;;8.16;67.72;97058.94;5089313;28;20381;-56
2023/03/26 06:15:18;;;;;;;;;;;;;;;8.18;67.63;97059.41;5074492;28;19938;-56
2023/03/26 06:18:14;;;;;;;;;;;;;;;8.25;67.88;97054.31;5080366;28;19924;-60
2023/03/26 06:21:01;;;;;;;;;;;;;;;8.25;66.75;97048.91;5083212;28;20028;-56
2023/03/26 06:23:42;;;;;;;;;;;;;;;8.25;66.86;97048.91;5110015;27;20350;-57
2023/03/26 06:26:38;;;;;;;;;;;;;;;8.25;67.71;97048.13;5067311;28;19929;-57
2023/03/26 06:29:19;;;;;;;;;;;;;;;8.26;67.54;97039.69;5084899;28;19959;-56
2023/03/26 06:32:06;;;;;;;;;;;;;;;8.24;67.58;97044.63;5087555;28;20024;-57
2023/03/26 06:34:55;;;;;;;;;;;;;;;8.11;68.01;97046.34;5091176;28;20015;-56
2023/03/26 06:37:24;;;;;;;;;;;;;;;8.13;67.93;97044.13;5086645;28;19928;-56
2023/03/26 06:39:57;;;;;;;;;;;;;;;8.22;67.66;97054.97;5108273;27;20408;-57
2023/03/26 06:42:46;;;;;;;;;;;;;;;8.34;67.54;97052.44;5087953;28;20750;-56
2023/03/26 06:45:50;;;;;;;;;;;;;;;8.30;67.42;97046.03;5085296;28;19983;-55
2023/03/26 06:48:33;;;;;;;;;;;;;;;8.24;67.08;97049.22;5086969;28;19928;-56
2023/03/26 06:51:20;;;;;;;;;;;;;;;8.44;66.98;97040.53;5089917;28;19997;-55
2023/03/26 06:54:05;;;;;;;;;;;;;;;8.47;67.53;97033.66;5092288;28;20440;-56
2023/03/26 06:56:53;;;;;;;;;;;;;;;8.42;66.88;97037.34;5088802;28;20408;-56
2023/03/26 06:59:23;;;;;;;;;;;;;;;8.37;66.83;97032.09;5088672;28;19925;-55
2023/03/26 07:02:10;;;;;;;;;;;;;;;8.45;67.24;97025.88;5089096;28;19947;-58
2023/03/26 07:04:56;;;;;;;;;;;;;;;8.57;66.89;97034.13;5090407;28;19928;-57
2023/03/26 07:07:43;;;;;;;;;;;;;;;8.71;66.42;97017.72;5087824;28;19935;-56
2023/03/26 07:10:36;;;;;;;;;;;;;;;8.55;66.39;97022.84;5070739;28;20364;-56
2023/03/26 07:13:31;;;;;;;;;;;;;;;8.76;66.49;97025.69;5086505;28;19928;-56
2023/03/26 07:16:19;;;;;;;;;;;;;;;8.81;66.02;97022.81;5091166;28;20297;-56
2023/03/26 07:19:10;;;;;;;;;;;;;;;8.77;66.28;97037.31;5078982;28;19928;-56
2023/03/26 07:21:40;;;;;;;;;;;;;;;8.74;66.64;97029.84;5079743;28;19931;-56
2023/03/26 07:24:23;;;;;;;;;;;;;;;8.83;66.01;97026.00;5089213;28;19931;-58
2023/03/26 07:27:02;;;;;;;;;;;;;;;8.70;66.26;97028.91;5088579;28;19939;-58
2023/03/26 07:29:39;;;;;;;;;;;;;;;8.87;65.67;97010.69;5086526;28;19967;-56
2023/03/26 07:32:28;;;;;;;;;;;;;;;8.85;65.38;97007.53;5085246;28;20293;-56
2023/03/26 07:35:20;;;;;;;;;;;;;;;8.72;65.86;97005.78;5084524;28;19924;-56
2023/03/26 07:38:09;;;;;;;;;;;;;;;8.88;65.86;97001.44;5084149;28;19924;-56
2023/03/26 07:40:54;;;;;;;;;;;;;;;8.81;65.99;96994.94;5080739;28;19932;-56
2023/03/26 07:43:47;;;;;;;;;;;;;;;8.89;65.53;96986.81;5085233;28;20017;-56
2023/03/26 07:46:40;;;;;;;;;;;;;;;8.88;65.42;96979.78;5077199;28;20618;-56
2023/03/26 07:49:30;;;;;;;;;;;;;;;8.95;64.96;96971.19;5080203;28;19939;-59
2023/03/26 07:52:15;;;;;;;;;;;;;;;8.99;65.82;96976.72;5090362;28;20377;-57
2023/03/26 07:55:02;;;;;;;;;;;;;;;9.02;66.39;96968.75;5082411;28;19935;-57
2023/03/26 07:57:52;;;;;;;;;;;;;;;9.14;66.34;96965.34;5084888;28;20070;-57
2023/03/26 08:00:45;;;;;;;;;;;;;;;9.18;66.72;96960.88;5083563;28;19928;-57
2023/03/26 08:03:26;;;;;;;;;;;;;;;9.16;66.22;96950.38;5103509;28;19932;-57
2023/03/26 08:06:15;;;;;;;;;;;;;;;8.97;67.10;96944.56;5090016;28;20338;-57
2023/03/26 08:08:56;;;;;;;;;;;;;;;8.95;67.17;96945.97;5089175;28;19924;-56
2023/03/26 08:11:47;;;;;;;;;;;;;;;8.97;67.04;96927.50;5081523;28;19928;-57
2023/03/26 08:14:22;;;;;;;;;;;;;;;9.08;66.53;96931.44;5086374;28;20433;-57
2023/03/26 08:16:51;;;;;;;;;;;;;;;9.00;67.61;96940.38;5084239;28;19931;-56
2023/03/26 08:19:24;;;;;;;;;;;;;;;9.08;67.26;96940.34;5089994;28;20100;-57
2023/03/26 08:21:58;;;;;;;;;;;;;;;8.81;68.28;96938.84;5083706;28;20396;-57
2023/03/26 08:24:27;;;;;;;;;;;;;;;8.88;67.67;96936.44;5085302;28;19924;-61
2023/03/26 08:26:57;;;;;;;;;;;;;;;8.86;67.42;96932.47;5090064;28;19962;-57
2023/03/26 08:29:26;;;;;;;;;;;;;;;8.83;67.73;96933.91;5090268;28;19934;-61
2023/03/26 08:31:54;;;;;;;;;;;;;;;8.87;67.68;96918.59;5090318;28;19931;-58
2023/03/26 08:34:22;;;;;;;;;;;;;;;8.86;68.01;96924.34;5089313;28;19935;-57
2023/03/26 08:36:50;;;;;;;;;;;;;;;8.80;69.31;96923.75;5089144;28;19931;-58
2023/03/26 08:39:21;;;;;;;;;;;;;;;8.85;68.84;96915.44;5106939;28;20007;-57
2023/03/26 08:42:22;;;;;;;;;;;;;;;8.67;69.46;96916.59;5090989;28;20335;-57
2023/03/26 08:45:08;;;;;;;;;;;;;;;8.82;70.45;96909.88;5083577;28;19939;-57
2023/03/26 08:47:50;;;;;;;;;;;;;;;8.88;70.38;96900.44;5084572;28;19928;-58
2023/03/26 08:50:27;;;;;;;;;;;;;;;8.85;71.15;96898.41;5095652;28;19978;-60
2023/03/26 08:53:00;;;;;;;;;;;;;;;8.75;71.99;96894.13;5092503;28;19924;-60
2023/03/26 08:55:37;;;;;;;;;;;;;;;8.91;71.88;96887.06;5086943;28;19929;-57
2023/03/26 08:58:35;;;;;;;;;;;;;;;8.88;71.98;96893.09;5079930;28;19924;-62
2023/03/26 09:01:07;;;;;;;;;;;;;;;8.81;71.89;96882.00;5082597;28;19924;-57
2023/03/26 09:03:51;;;;;;;;;;;;;;;8.92;72.27;96880.50;5086918;28;19932;-57
2023/03/26 09:06:23;;;;;;;;;;;;;;;8.84;72.86;96881.34;5081760;28;19932;-57
2023/03/26 09:09:10;;;;;;;;;;;;;;;8.84;73.17;96869.69;5095521;28;20356;-57
2023/03/26 09:12:15;;;;;;;;;;;;;;;8.83;73.84;96868.91;5080828;28;20259;-57
2023/03/26 09:14:50;;;;;;;;;;;;;;;8.82;73.71;96872.75;5082401;28;20011;-57
2023/03/26 09:17:23;;;;;;;;;;;;;;;8.84;74.05;96870.53;5087081;28;19977;-58
2023/03/26 09:20:12;;;;;;;;;;;;;;;8.85;73.84;96872.09;5087866;28;19924;-58
2023/03/26 09:22:58;;;;;;;;;;;;;;;8.78;74.38;96874.50;5055913;28;19939;-58
2023/03/26 09:25:38;;;;;;;;;;;;;;;8.30;75.98;96872.06;5102138;28;19928;-63
2023/03/26 09:28:24;;;;;;;;;;;;;;;8.23;76.40;96860.94;5087493;28;19955;-58
2023/03/26 09:31:12;;;;;;;;;;;;;;;8.56;75.98;96853.88;5088669;28;19924;-62
2023/03/26 09:33:58;;;;;;;;;;;;;;;8.81;75.31;96860.31;5105540;28;19957;-57
2023/03/26 09:36:32;;;;;;;;;;;;;;;8.86;75.46;96857.44;5087627;28;19928;-57
2023/03/26 09:39:03;;;;;;;;;;;;;;;8.95;75.56;96864.72;5089505;28;19935;-57
2023/03/26 09:41:34;;;;;;;;;;;;;;;8.93;75.02;96863.13;5089015;28;19947;-57
2023/03/26 09:44:22;;;;;;;;;;;;;;;8.74;75.25;96854.63;5087228;28;19931;-57
2023/03/26 09:46:56;;;;;;;;;;;;;;;8.62;76.47;96858.00;5085814;28;19928;-57
2023/03/26 09:49:33;;;;;;;;;;;;;;;8.72;76.38;96856.84;5086929;28;19970;-58
2023/03/26 09:52:03;;;;;;;;;;;;;;;8.82;76.41;96858.41;5087651;28;19936;-58
2023/03/26 09:54:43;;;;;;;;;;;;;;;8.71;75.86;96857.97;5087708;28;19954;-58
2023/03/26 09:57:15;;;;;;;;;;;;;;;8.62;76.58;96851.78;5102211;28;19931;-59
2023/03/26 10:03:56;;;;;;;;;;;;;;;8.62;76.13;96863.41;5082313;28;20006;-57
2023/03/26 10:06:33;;;;;;;;;;;;;;;8.64;76.55;96863.09;5090493;28;19924;-58
2023/03/26 10:09:16;;;;;;;;;;;;;;;8.61;77.21;96851.00;5086686;28;20246;-57
2023/03/26 10:11:51;;;;;;;;;;;;;;;8.60;77.62;96845.91;5090258;28;19943;-57
2023/03/26 10:14:20;;;;;;;;;;;;;;;8.62;77.68;96843.66;5089528;28;20336;-57
2023/03/26 10:16:51;;;;;;;;;;;;;;;8.59;78.08;96837.00;5085740;28;19931;-57
2023/03/26 10:19:23;;;;;;;;;;;;;;;8.66;77.92;96831.88;5090113;28;19938;-57
2023/03/26 10:21:54;;;;;;;;;;;;;;;8.77;77.31;96836.91;5087964;28;19924;-57
2023/03/26 10:24:28;;;;;;;;;;;;;;;8.70;77.04;96831.22;5082363;28;19932;-57
2023/03/26 10:27:04;;;;;;;;;;;;;;;8.67;77.17;96835.38;5089387;28;19932;-57
2023/03/26 10:29:41;;;;;;;;;;;;;;;8.45;77.68;96836.41;5088925;28;19924;-57
2023/03/26 10:32:16;;;;;;;;;;;;;;;8.53;77.17;96835.59;5082880;28;19963;-57
2023/03/26 10:34:51;;;;;;;;;;;;;;;8.59;77.00;96836.22;5111794;27;19967;-59
2023/03/26 10:37:20;;;;;;;;;;;;;;;8.43;77.92;96837.84;5083800;28;19973;-57
2023/03/26 10:39:55;;;;;;;;;;;;;;;8.62;77.88;96836.34;5090004;28;19995;-57
2023/03/26 10:42:42;;;;;;;;;;;;;;;8.56;78.05;96817.88;5084384;28;19925;-57
2023/03/26 10:45:14;;;;;;;;;;;;;;;8.70;78.11;96825.81;5091519;28;20017;-57
2023/03/26 10:47:48;;;;;;;;;;;;;;;8.59;78.62;96820.75;5086560;28;19974;-57
2023/03/26 10:50:43;;;;;;;;;;;;;;;8.65;78.44;96818.66;5081869;28;20288;-57
2023/03/26 10:53:13;;;;;;;;;;;;;;;8.75;78.50;96823.72;5070544;28;20308;-57
2023/03/26 10:55:44;;;;;;;;;;;;;;;8.83;77.77;96808.53;5086622;28;19928;-56
2023/03/26 10:58:13;;;;;;;;;;;;;;;8.83;78.28;96803.91;5089358;28;19932;-56
2023/03/26 11:00:43;;;;;;;;;;;;;;;8.66;78.82;96804.00;5079697;28;19932;-58
2023/03/26 11:03:34;;;;;;;;;;;;;;;8.78;78.82;96804.09;5083561;28;19936;-58
2023/03/26 11:06:04;;;;;;;;;;;;;;;8.87;78.39;96798.63;5070896;28;19948;-58
2023/03/26 11:08:37;;;;;;;;;;;;;;;8.93;77.42;96800.03;5081873;28;20377;-57
2023/03/26 11:11:06;;;;;;;;;;;;;;;8.90;78.06;96801.50;5088850;28;19928;-57
2023/03/26 11:13:40;;;;;;;;;;;;;;;8.74;78.29;96805.09;5088372;28;19924;-57
2023/03/26 11:16:09;;;;;;;;;;;;;;;8.72;79.10;96799.97;5073354;28;19990;-57
2023/03/26 11:18:39;;;;;;;;;;;;;;;8.74;79.19;96792.34;5084330;28;20057;-58
2023/03/26 11:21:08;;;;;;;;;;;;;;;8.76;78.28;96783.88;5087452;28;19928;-57
2023/03/26 11:23:49;;;;;;;;;;;;;;;8.84;78.45;96778.44;5087652;28;20203;-59
2023/03/26 11:26:34;;;;;;;;;;;;;;;8.88;78.39;96773.13;5082555;28;19951;-57
2023/03/26 11:29:09;;;;;;;;;;;;;;;8.93;78.60;96773.75;5082250;28;19924;-57
2023/03/26 11:31:58;;;;;;;;;;;;;;;8.95;77.63;96772.63;5080405;28;19924;-58
2023/03/26 11:34:27;;;;;;;;;;;;;;;8.84;76.34;96761.38;5086471;28;19924;-57
2023/03/26 11:36:55;;;;;;;;;;;;;;;8.82;75.72;96750.88;5088385;28;19943;-58
2023/03/26 11:39:25;;;;;;;;;;;;;;;8.85;75.63;96750.22;5092606;28;19925;-60
2023/03/26 11:41:55;;;;;;;;;;;;;;;8.72;75.58;96742.31;5091805;28;19993;-58
2023/03/26 11:44:31;;;;;;;;;;;;;;;8.73;75.96;96743.91;5085994;28;20026;-57
2023/03/26 11:47:02;;;;;;;;;;;;;;;8.83;75.82;96748.94;5086545;28;20017;-56
2023/03/26 11:49:30;;;;;;;;;;;;;;;8.93;75.06;96735.81;5093846;28;19924;-57
2023/03/26 11:52:00;;;;;;;;;;;;;;;9.13;75.19;96730.75;5090485;28;19932;-57
2023/03/26 11:54:31;;;;;;;;;;;;;;;9.01;74.77;96736.91;5082636;28;19924;-58
2023/03/26 11:57:02;;;;;;;;;;;;;;;9.18;74.19;96738.69;5091957;28;19978;-58
2023/03/26 11:59:34;;;;;;;;;;;;;;;9.10;73.97;96742.25;5088786;28;19997;-57
2023/03/26 12:02:16;;;;;;;;;;;;;;;9.19;73.61;96730.22;5085539;28;20385;-59
2023/03/26 12:04:44;;;;;;;;;;;;;;;9.12;72.98;96726.47;5090868;28;19931;-57
2023/03/26 12:07:15;;;;;;;;;;;;;;;9.07;72.73;96730.16;5086058;28;20373;-57
2023/03/26 12:09:52;;;;;;;;;;;;;;;9.06;72.76;96735.91;5095383;28;19952;-59
2023/03/26 12:12:20;;;;;;;;;;;;;;;9.12;72.76;96734.59;5090557;28;19924;-58
2023/03/26 12:14:51;;;;;;;;;;;;;;;9.10;72.65;96731.41;5105827;28;19946;-59
2023/03/26 12:17:25;;;;;;;;;;;;;;;9.15;73.14;96726.56;5083209;28;19951;-58
2023/03/26 12:19:58;;;;;;;;;;;;;;;9.19;73.31;96730.22;5088960;28;19947;-59
2023/03/26 12:22:29;;;;;;;;;;;;;;;9.42;72.78;96711.69;5090534;28;19931;-57
2023/03/26 12:25:02;;;;;;;;;;;;;;;9.83;72.92;96718.16;5084127;28;19931;-58
2023/03/26 12:27:36;;;;;;;;;;;;;;;10.15;71.19;96715.72;5086933;28;19974;-57
2023/03/26 12:30:10;;;;;;;;;;;;;;;10.46;69.07;96694.28;5087104;28;19924;-60
2023/03/26 12:32:41;;;;;;;;;;;;;;;10.62;68.83;96688.97;5085459;28;20281;-58
2023/03/26 12:35:17;;;;;;;;;;;;;;;10.89;68.44;96690.16;5085578;28;20420;-59
2023/03/26 12:37:45;;;;;;;;;;;;;;;10.98;68.24;96685.41;5100055;28;20025;-58
2023/03/26 12:40:28;;;;;;;;;;;;;;;10.95;69.30;96688.78;5092254;28;19932;-57
2023/03/26 12:42:56;;;;;;;;;;;;;;;10.99;69.04;96678.81;5085651;28;19928;-58
2023/03/26 12:45:44;;;;;;;;;;;;;;;11.18;68.87;96672.75;5079785;28;19932;-57
2023/03/26 12:48:13;;;;;;;;;;;;;;;11.23;67.92;96660.84;5097055;28;19974;-57
2023/03/26 12:50:46;;;;;;;;;;;;;;;11.40;67.97;96663.28;5085327;28;20000;-57
2023/03/26 12:53:18;;;;;;;;;;;;;;;11.23;67.24;96663.56;5087722;28;19939;-58
2023/03/26 12:55:50;;;;;;;;;;;;;;;11.33;67.50;96660.34;5106017;27;20305;-57
2023/03/26 12:58:25;;;;;;;;;;;;;;;11.32;66.30;96647.91;5089271;28;19931;-62
2023/03/26 13:00:54;;;;;;;;;;;;;;;11.49;66.72;96641.34;5072375;28;19943;-58
2023/03/26 13:03:36;;;;;;;;;;;;;;;11.57;65.66;96631.47;5081119;28;20296;-59
2023/03/26 13:06:10;;;;;;;;;;;;;;;11.75;64.94;96647.09;5088221;28;19931;-57
2023/03/26 13:08:42;;;;;;;;;;;;;;;11.85;63.59;96645.06;5089809;28;20022;-57
2023/03/26 13:11:13;;;;;;;;;;;;;;;11.80;61.91;96632.47;5090995;28;20003;-58
2023/03/26 13:13:45;;;;;;;;;;;;;;;11.75;61.90;96643.59;5089957;28;19978;-57
2023/03/26 13:16:15;;;;;;;;;;;;;;;11.64;62.13;96626.22;5083734;28;19928;-57
2023/03/26 13:18:44;;;;;;;;;;;;;;;11.52;61.43;96633.31;5095867;28;19924;-59
2023/03/26 13:21:12;;;;;;;;;;;;;;;11.69;61.04;96629.47;5091474;28;20369;-57
2023/03/26 13:23:44;;;;;;;;;;;;;;;11.74;59.25;96621.03;5089394;28;19969;-57
2023/03/26 13:26:17;;;;;;;;;;;;;;;11.90;58.39;96625.75;5091190;28;19977;-57
2023/03/26 13:28:47;;;;;;;;;;;;;;;11.93;58.92;96617.69;5082345;28;19924;-57
2023/03/26 13:31:17;;;;;;;;;;;;;;;12.19;60.14;96619.03;5080935;28;19959;-58
2023/03/26 13:33:46;;;;;;;;;;;;;;;12.06;57.67;96616.44;5086013;28;19932;-57
2023/03/26 13:36:16;;;;;;;;;;;;;;;11.91;58.57;96603.59;5088594;28;19936;-58
2023/03/26 13:39:06;;;;;;;;;;;;;;;11.97;57.27;96596.75;5091606;28;19932;-58
2023/03/26 13:41:38;;;;;;;;;;;;;;;11.99;58.64;96599.94;5096519;28;19994;-57
2023/03/26 13:44:08;;;;;;;;;;;;;;;11.98;58.68;96603.78;5089253;28;19924;-58